Time;durP1;ratioP1;P1;durP2;ratioP2;P2;SDS_P1;SDS_P2;PMS_P1;PMS_P2;Temp;Humidity;BMP_temperature;BMP_pressure;BME280_temperature;BME280_humidity;BME280_pressure;Samples;Min_cycle;Max_cycle;Signal;HPM_P1;HPM_P2
2022/08/01 00:01:20;;;;;;;8.15;5.88;;;;;;;19.12;84.71;101516.53;5027557;28;20365;-76
2022/08/01 00:03:45;;;;;;;10.50;6.53;;;;;;;19.13;84.92;101526.13;5029716;28;20079;-76
2022/08/01 00:06:11;;;;;;;9.27;6.15;;;;;;;19.14;84.75;101524.34;5027166;28;20024;-76
2022/08/01 00:08:36;;;;;;;8.82;6.00;;;;;;;19.14;84.06;101519.06;5026545;28;20111;-76
2022/08/01 00:11:01;;;;;;;9.27;6.60;;;;;;;19.15;85.05;101520.78;5026982;28;20604;-76
2022/08/01 00:13:26;;;;;;;9.02;6.07;;;;;;;19.13;84.84;101528.75;5026519;28;20021;-77
2022/08/01 00:15:52;;;;;;;9.25;6.10;;;;;;;19.14;84.75;101525.19;5025580;28;20447;-77
2022/08/01 00:18:17;;;;;;;9.07;6.43;;;;;;;19.14;85.09;101525.19;5029187;28;20484;-76
2022/08/01 00:20:42;;;;;;;9.00;6.22;;;;;;;19.13;84.60;101528.75;5027099;28;20191;-76
2022/08/01 00:23:08;;;;;;;10.77;6.70;;;;;;;19.13;85.02;101530.56;5026037;28;20083;-76
2022/08/01 00:25:33;;;;;;;12.02;6.95;;;;;;;19.14;85.18;101534.91;5027205;28;20033;-76
2022/08/01 00:27:58;;;;;;;10.75;6.18;;;;;;;19.13;85.18;101528.75;5026244;28;20107;-76
2022/08/01 00:30:23;;;;;;;11.82;6.60;;;;;;;19.12;84.95;101527.09;5026305;28;20046;-76
2022/08/01 00:32:49;;;;;;;9.48;6.30;;;;;;;19.12;84.97;101527.09;5025670;28;20029;-76
2022/08/01 00:35:14;;;;;;;10.82;7.03;;;;;;;19.11;85.06;101528.00;5025791;28;20035;-76
2022/08/01 00:37:39;;;;;;;10.00;6.60;;;;;;;19.11;85.22;101520.09;5028855;28;20049;-76
2022/08/01 00:40:06;;;;;;;12.02;7.30;;;;;;;19.12;85.01;101532.34;5028570;28;20044;-76
2022/08/01 00:42:32;;;;;;;13.45;7.38;;;;;;;19.12;85.33;101532.34;5026160;28;20029;-77
2022/08/01 00:44:57;;;;;;;9.77;6.57;;;;;;;19.12;85.26;101532.34;5027661;28;20643;-77
2022/08/01 00:47:22;;;;;;;14.07;7.30;;;;;;;19.10;85.26;101526.31;5023681;28;20107;-76
2022/08/01 00:49:47;;;;;;;9.48;7.07;;;;;;;19.11;85.02;101530.66;5025443;28;20026;-76
2022/08/01 00:52:13;;;;;;;9.30;6.80;;;;;;;19.10;85.19;101532.41;5027263;28;20115;-76
2022/08/01 00:54:38;;;;;;;9.65;6.80;;;;;;;19.11;84.87;101536.75;5027820;28;20082;-76
2022/08/01 00:57:04;;;;;;;12.48;7.35;;;;;;;19.11;85.40;101530.66;5025679;28;20033;-76
2022/08/01 00:59:30;;;;;;;10.02;6.88;;;;;;;19.10;85.18;101531.59;5028017;28;20026;-76
2022/08/01 01:01:55;;;;;;;10.38;6.88;;;;;;;19.13;84.84;101544.59;5025890;28;20476;-76
2022/08/01 01:04:20;;;;;;;10.65;6.50;;;;;;;19.13;84.93;101546.38;5029787;28;20025;-77
2022/08/01 01:07:18;;;;;;;9.50;5.90;;;;;;;19.08;84.63;101547.47;5029468;28;20032;-76
2022/08/01 01:10:15;;;;;;;10.07;6.28;;;;;;;19.08;83.93;101541.34;5026056;28;20056;-76
2022/08/01 01:12:51;;;;;;;14.63;7.35;;;;;;;19.03;84.74;101538.09;5026043;28;20499;-76
2022/08/01 01:15:19;;;;;;;11.50;7.43;;;;;;;18.99;85.16;101544.44;5026874;28;20037;-76
2022/08/01 01:17:50;;;;;;;10.32;6.82;;;;;;;18.98;84.55;101550.63;5024771;28;20021;-77
2022/08/01 01:20:17;;;;;;;10.52;7.40;;;;;;;18.98;84.82;101546.22;5026646;28;20029;-76
2022/08/01 01:23:20;;;;;;;8.25;6.05;;;;;;;19.03;83.84;101546.88;5025650;28;20064;-76
2022/08/01 01:26:11;;;;;;;7.88;5.78;;;;;;;19.03;83.37;101543.34;5027222;28;20091;-77
2022/08/01 01:28:59;;;;;;;9.75;6.40;;;;;;;18.98;83.63;101551.50;5026810;28;20127;-76
2022/08/01 01:31:26;;;;;;;9.07;6.18;;;;;;;18.93;83.65;101543.81;5026710;28;20095;-74
2022/08/01 01:33:53;;;;;;;8.55;5.95;;;;;;;18.92;83.84;101542.09;5023230;28;20022;-74
2022/08/01 01:36:20;;;;;;;7.63;5.40;;;;;;;18.94;83.18;101547.28;5020792;28;20068;-74
2022/08/01 01:38:47;;;;;;;8.55;5.97;;;;;;;18.94;83.82;101534.09;5022335;28;20060;-74
2022/08/01 01:41:15;;;;;;;8.85;5.95;;;;;;;18.96;83.62;101532.25;5021529;28;20405;-74
2022/08/01 01:43:42;;;;;;;9.98;5.65;;;;;;;18.99;83.01;101531.25;5020720;28;20489;-75
2022/08/01 01:46:10;;;;;;;8.40;5.30;;;;;;;18.98;82.37;101535.69;5020290;28;20113;-74
2022/08/01 01:48:36;;;;;;;6.45;5.20;;;;;;;19.01;81.88;101532.91;5020285;28;20026;-74
2022/08/01 01:51:03;;;;;;;7.68;5.20;;;;;;;19.05;82.37;101541.50;5021786;28;20036;-74
2022/08/01 01:53:32;;;;;;;6.55;4.90;;;;;;;19.05;82.20;101538.88;5021826;28;20025;-74
2022/08/01 01:56:00;;;;;;;7.57;5.50;;;;;;;19.04;82.32;101545.06;5022820;28;20039;-74
2022/08/01 01:58:28;;;;;;;8.73;5.07;;;;;;;19.04;82.76;101537.16;5022025;28;20098;-74
2022/08/01 02:00:56;;;;;;;8.13;5.57;;;;;;;19.01;82.72;101543.44;5021745;28;20147;-74
2022/08/01 02:03:23;;;;;;;8.82;5.97;;;;;;;18.98;83.05;101545.34;5018985;28;20623;-74
2022/08/01 02:05:51;;;;;;;6.80;5.07;;;;;;;18.98;82.09;101542.72;5023013;28;20075;-75
2022/08/01 02:08:17;;;;;;;10.00;5.47;;;;;;;18.96;82.28;101548.09;5019927;28;20026;-74
2022/08/01 02:13:31;;;;;;;7.60;5.10;;;;;;;18.93;82.82;101541.16;5022666;28;20072;-74
2022/08/01 02:15:57;;;;;;;8.27;5.63;;;;;;;18.90;82.71;101540.44;5020007;28;20029;-74
2022/08/01 02:18:23;;;;;;;6.40;4.72;;;;;;;18.92;82.10;101541.22;5019454;28;20459;-75
2022/08/01 02:20:50;;;;;;;7.10;5.07;;;;;;;18.92;82.32;101542.09;5020249;28;20086;-74
2022/08/01 02:23:16;;;;;;;6.53;4.45;;;;;;;18.94;81.51;101540.25;5019652;28;20032;-75
2022/08/01 02:25:49;;;;;;;6.78;4.45;;;;;;;18.99;81.74;101545.31;5022510;28;20030;-74
2022/08/01 02:28:27;;;;;;;7.00;4.40;;;;;;;19.02;81.81;101537.25;5021696;28;20045;-74
2022/08/01 02:30:54;;;;;;;6.90;4.25;;;;;;;19.06;81.14;101541.41;5027088;28;20028;-74
2022/08/01 02:33:23;;;;;;;6.22;4.25;;;;;;;19.09;80.89;101537.78;5026981;28;20029;-74
2022/08/01 02:35:56;;;;;;;6.75;4.60;;;;;;;19.13;80.86;101543.75;5026829;28;20040;-74
2022/08/01 02:38:25;;;;;;;8.52;4.75;;;;;;;19.12;81.47;101537.63;5031175;28;21379;-74
2022/08/01 02:40:53;;;;;;;6.07;4.53;;;;;;;19.06;81.59;101537.94;5028022;28;20156;-75
2022/08/01 02:43:23;;;;;;;6.13;4.05;;;;;;;19.08;80.69;101536.06;5025390;28;20248;-74
2022/08/01 02:45:56;;;;;;;6.38;4.13;;;;;;;19.09;80.45;101535.16;5040853;28;20091;-74
2022/08/01 02:48:25;;;;;;;6.57;4.40;;;;;;;19.08;81.20;101543.97;5026617;28;20029;-75
2022/08/01 02:50:52;;;;;;;5.82;4.03;;;;;;;19.08;80.60;101546.63;5029564;28;20116;-74
2022/08/01 02:53:21;;;;;;;6.32;3.97;;;;;;;19.07;80.31;101543.13;5030010;28;20483;-75
2022/08/01 02:55:47;;;;;;;5.70;4.03;;;;;;;19.09;80.54;101537.78;5027876;28;20033;-74
2022/08/01 02:58:15;;;;;;;6.80;4.07;;;;;;;19.10;79.40;101539.50;5021642;28;20072;-74
2022/08/01 03:00:42;;;;;;;5.47;4.00;;;;;;;19.10;80.20;101539.50;5026061;28;20088;-74
2022/08/01 03:03:09;;;;;;;6.75;3.95;;;;;;;19.08;80.29;101531.63;5027545;28;20032;-74
2022/08/01 03:05:35;;;;;;;7.38;4.45;;;;;;;19.11;79.66;101530.66;5027368;28;20033;-74
2022/08/01 03:08:02;;;;;;;6.15;3.75;;;;;;;19.11;80.05;101528.84;5027220;28;20029;-75
2022/08/01 03:10:28;;;;;;;7.90;4.20;;;;;;;19.13;80.15;101536.66;5024950;28;20040;-74
2022/08/01 03:12:55;;;;;;;7.22;4.15;;;;;;;19.13;79.73;101544.59;5027073;28;20037;-74
2022/08/01 03:15:22;;;;;;;7.00;4.22;;;;;;;19.10;80.03;101544.78;5028918;28;20026;-75
2022/08/01 03:17:51;;;;;;;6.38;4.15;;;;;;;19.08;80.26;101530.81;5026997;28;20071;-74
2022/08/01 03:20:18;;;;;;;6.47;4.28;;;;;;;19.08;80.68;101541.34;5025310;28;20048;-74
2022/08/01 03:22:45;;;;;;;9.00;4.88;;;;;;;19.02;80.30;101539.00;5027052;28;20136;-74
2022/08/01 03:25:13;;;;;;;7.45;4.70;;;;;;;18.99;80.44;101540.03;5024465;28;20120;-74
2022/08/01 03:27:41;;;;;;;7.63;4.60;;;;;;;18.94;80.49;101544.63;5026715;28;20390;-74
2022/08/01 03:30:07;;;;;;;8.15;4.70;;;;;;;18.87;80.70;101544.09;5025642;28;20022;-74
2022/08/01 03:32:33;;;;;;;7.63;4.80;;;;;;;18.84;80.62;101544.25;5023244;28;20040;-74
2022/08/01 03:34:58;;;;;;;7.45;4.10;;;;;;;18.84;80.47;101548.69;5041354;28;20037;-74
2022/08/01 03:37:27;;;;;;;8.60;5.03;;;;;;;18.78;80.82;101545.41;5025691;28;20058;-74
2022/08/01 03:40:00;;;;;;;7.82;4.63;;;;;;;18.78;81.07;101560.38;5028961;28;20026;-74
2022/08/01 03:42:32;;;;;;;7.32;4.53;;;;;;;18.76;80.87;101557.78;5026050;28;20033;-74
2022/08/01 03:45:02;;;;;;;7.95;4.80;;;;;;;18.74;80.94;101554.38;5028369;28;20035;-74
2022/08/01 03:47:35;;;;;;;8.80;4.60;;;;;;;18.74;81.04;101553.53;5025886;28;20096;-74
2022/08/01 03:50:03;;;;;;;7.78;4.57;;;;;;;18.71;81.43;101558.97;5028514;28;20040;-74
2022/08/01 03:52:30;;;;;;;9.57;5.10;;;;;;;18.70;81.93;101562.53;5029242;28;20366;-74
2022/08/01 03:54:59;;;;;;;8.13;4.65;;;;;;;18.66;81.17;101557.38;5025478;28;20033;-74
2022/08/01 03:57:28;;;;;;;8.55;5.00;;;;;;;18.62;81.75;101563.72;5027342;28;20040;-74
2022/08/01 03:59:56;;;;;;;8.90;5.32;;;;;;;18.56;82.02;101561.41;5027905;28;20025;-74
2022/08/01 04:02:22;;;;;;;8.40;4.97;;;;;;;18.58;81.79;101562.19;5030074;28;20029;-74
2022/08/01 04:04:48;;;;;;;7.03;4.40;;;;;;;18.60;81.51;101557.72;5029102;28;20039;-74
2022/08/01 04:07:35;;;;;;;7.10;4.70;;;;;;;18.65;80.65;101555.69;5028855;28;20037;-74
2022/08/01 04:10:01;;;;;;;6.25;4.25;;;;;;;18.69;80.98;101560.81;5027295;28;20038;-74
2022/08/01 04:12:26;;;;;;;7.95;4.82;;;;;;;18.72;80.75;101561.50;5027477;28;20392;-75
2022/08/01 04:14:52;;;;;;;6.40;4.15;;;;;;;18.73;80.98;101562.38;5027190;28;20393;-74
2022/08/01 04:17:18;;;;;;;6.75;4.15;;;;;;;18.76;80.93;101567.50;5027678;28;20021;-74
2022/08/01 04:19:44;;;;;;;6.70;4.05;;;;;;;18.79;80.54;101568.19;5025943;28;20029;-74
2022/08/01 04:22:12;;;;;;;6.45;4.10;;;;;;;18.83;80.14;101568.91;5028179;28;20028;-74
2022/08/01 04:24:39;;;;;;;7.60;4.45;;;;;;;18.78;80.26;101565.66;5029399;28;20029;-74
2022/08/01 04:27:12;;;;;;;10.20;5.70;;;;;;;18.68;80.46;101559.97;5029818;28;20502;-75
2022/08/01 04:29:39;;;;;;;12.50;6.85;;;;;;;18.26;82.45;101561.06;5028528;28;20026;-74
2022/08/01 04:32:07;;;;;;;12.43;6.97;;;;;;;17.94;84.34;101558.97;5024637;28;20039;-74
2022/08/01 04:34:33;;;;;;;12.50;6.38;;;;;;;17.79;84.70;101567.53;5025650;28;20039;-74
2022/08/01 04:37:00;;;;;;;12.95;6.70;;;;;;;17.62;85.39;101569.16;5027012;28;20493;-75
2022/08/01 04:39:28;;;;;;;10.65;6.03;;;;;;;17.51;86.04;101572.25;5027197;28;20723;-74
2022/08/01 04:41:57;;;;;;;12.25;6.07;;;;;;;17.42;86.08;101573.50;5023969;28;20025;-74
2022/08/01 04:44:24;;;;;;;9.77;5.90;;;;;;;17.36;86.95;101571.16;5026278;28;20040;-74
2022/08/01 04:46:54;;;;;;;11.50;6.75;;;;;;;17.28;87.64;101576.72;5023790;28;20108;-74
2022/08/01 04:49:20;;;;;;;12.70;6.82;;;;;;;17.27;87.91;101574.16;5022908;28;20112;-74
2022/08/01 04:51:57;;;;;;;12.30;6.70;;;;;;;17.22;88.37;101576.97;5021649;28;20116;-75
2022/08/01 04:54:24;;;;;;;10.73;6.28;;;;;;;17.22;88.39;101576.97;5023729;28;20049;-74
2022/08/01 04:56:50;;;;;;;12.45;6.40;;;;;;;17.22;89.03;101584.88;5024692;28;20024;-74
2022/08/01 05:01:58;;;;;;;13.82;6.97;;;;;;;17.23;89.77;101583.13;5022933;28;20067;-74
2022/08/01 05:04:24;;;;;;;12.63;7.00;;;;;;;17.26;89.75;101588.22;5026864;28;20457;-74
2022/08/01 05:06:49;;;;;;;11.43;6.15;;;;;;;17.28;89.67;101586.38;5025414;28;20055;-74
2022/08/01 05:09:15;;;;;;;12.73;6.50;;;;;;;17.28;89.19;101594.28;5025476;28;20033;-75
2022/08/01 05:11:41;;;;;;;12.70;6.18;;;;;;;17.28;89.46;101599.53;5030006;28;20596;-74
2022/08/01 05:14:06;;;;;;;11.68;6.30;;;;;;;17.30;89.33;101592.44;5024089;28;20030;-74
2022/08/01 05:16:31;;;;;;;10.40;5.82;;;;;;;17.30;89.62;101595.06;5026973;28;20029;-74
2022/08/01 05:18:57;;;;;;;10.82;6.25;;;;;;;17.28;89.39;101576.72;5028272;28;20053;-74
2022/08/01 05:21:22;;;;;;;11.13;6.10;;;;;;;17.31;89.58;101586.25;5028717;28;20057;-74
2022/08/01 05:23:48;;;;;;;11.63;6.50;;;;;;;17.34;89.35;101596.66;5026537;28;20091;-74
2022/08/01 05:26:14;;;;;;;9.77;5.78;;;;;;;17.36;89.73;101589.56;5024719;28;20103;-75
2022/08/01 05:28:39;;;;;;;12.93;5.78;;;;;;;17.39;89.90;101599.97;5026157;28;20033;-74
2022/08/01 05:31:05;;;;;;;10.80;6.30;;;;;;;17.41;90.27;101592.84;5022835;28;20045;-74
2022/08/01 05:33:30;;;;;;;15.05;6.95;;;;;;;17.48;90.56;101597.84;5026684;28;20036;-74
2022/08/01 05:35:55;;;;;;;14.93;6.57;;;;;;;17.52;90.53;101604.69;5026969;28;20384;-74
2022/08/01 05:38:20;;;;;;;13.27;7.68;;;;;;;17.50;91.09;101611.78;5026580;28;20041;-75
2022/08/01 05:40:46;;;;;;;17.02;8.50;;;;;;;17.50;91.22;101617.03;5028905;28;20473;-74
2022/08/01 05:43:11;;;;;;;17.77;8.45;;;;;;;17.50;91.53;101617.91;5025795;28;20048;-74
2022/08/01 05:45:36;;;;;;;11.52;6.97;;;;;;;17.60;90.84;101615.72;5022687;28;20033;-74
2022/08/01 05:48:02;;;;;;;13.57;7.18;;;;;;;17.63;90.80;101615.59;5025611;28;20488;-74
2022/08/01 05:50:27;;;;;;;13.57;7.53;;;;;;;17.67;90.68;101622.44;5025854;28;20037;-74
2022/08/01 05:52:52;;;;;;;12.57;7.28;;;;;;;17.71;91.00;101616.13;5028933;28;20570;-74
2022/08/01 05:55:17;;;;;;;15.68;6.75;;;;;;;17.75;90.25;101611.56;5029532;28;20029;-74
2022/08/01 05:57:43;;;;;;;17.17;7.90;;;;;;;17.77;90.35;101612.38;5029116;28;20033;-74
2022/08/01 06:00:09;;;;;;;11.18;6.80;;;;;;;17.79;89.99;101613.16;5028963;28;20037;-74
2022/08/01 06:02:40;;;;;;;10.35;6.28;;;;;;;17.76;89.12;101613.28;5027628;28;20116;-74
2022/08/01 06:05:05;;;;;;;12.00;6.38;;;;;;;17.74;89.94;101613.38;5030986;28;20021;-74
2022/08/01 06:07:30;;;;;;;10.85;6.03;;;;;;;17.73;89.30;101611.66;5030267;28;20481;-74
2022/08/01 06:09:56;;;;;;;10.70;6.13;;;;;;;17.72;89.19;101617.84;5031474;28;20457;-74
2022/08/01 06:12:21;;;;;;;11.13;6.43;;;;;;;17.71;89.20;101616.13;5031938;28;20033;-74
2022/08/01 06:14:46;;;;;;;13.10;7.40;;;;;;;17.68;89.50;101618.88;5033461;28;20025;-74
2022/08/01 06:17:12;;;;;;;13.18;7.15;;;;;;;17.68;89.74;101616.25;5033680;28;20665;-74
2022/08/01 06:19:37;;;;;;;9.60;6.03;;;;;;;17.73;89.11;101623.94;5032075;28;20083;-74
2022/08/01 06:22:02;;;;;;;9.68;5.22;;;;;;;17.84;89.12;101620.84;5031982;28;20052;-75
2022/08/01 06:24:27;;;;;;;8.05;5.25;;;;;;;17.91;88.51;101619.66;5030961;28;20435;-74
2022/08/01 06:26:53;;;;;;;10.32;5.57;;;;;;;18.01;88.21;101623.63;5034130;28;20095;-76
2022/08/01 06:29:18;;;;;;;8.15;4.85;;;;;;;18.13;87.54;101621.34;5030720;28;20033;-74
2022/08/01 06:31:43;;;;;;;7.78;5.07;;;;;;;18.22;87.48;101620.94;5033427;28;20435;-74
2022/08/01 06:34:09;;;;;;;7.88;5.20;;;;;;;18.31;87.58;101627.56;5030905;28;20045;-74
2022/08/01 06:36:34;;;;;;;8.13;5.07;;;;;;;18.34;86.78;101625.66;5031020;28;20465;-74
2022/08/01 06:38:59;;;;;;;8.10;4.93;;;;;;;18.39;86.04;101627.22;5030643;28;20048;-74
2022/08/01 06:41:24;;;;;;;8.02;5.13;;;;;;;18.40;86.50;101621.03;5032598;28;20025;-75
2022/08/01 06:43:50;;;;;;;6.78;4.30;;;;;;;18.43;85.86;101631.44;5032909;28;20036;-74
2022/08/01 06:46:15;;;;;;;7.47;4.63;;;;;;;18.46;86.25;101634.75;5033755;28;20059;-74
2022/08/01 06:48:40;;;;;;;7.53;4.35;;;;;;;18.50;85.94;101641.63;5029601;28;20033;-74
2022/08/01 06:51:08;;;;;;;7.80;4.78;;;;;;;18.55;86.38;101633.47;5033343;28;20021;-74
2022/08/01 06:53:35;;;;;;;5.70;4.20;;;;;;;18.58;84.46;101638.63;5032588;28;20073;-74
2022/08/01 06:56:01;;;;;;;5.80;4.07;;;;;;;18.61;84.38;101638.47;5029685;28;20480;-74
2022/08/01 06:58:26;;;;;;;8.15;4.32;;;;;;;18.64;83.82;101640.09;5028822;28;20063;-74
2022/08/01 07:00:52;;;;;;;5.78;3.95;;;;;;;18.66;83.99;101639.09;5030060;28;20028;-74
2022/08/01 07:03:17;;;;;;;5.00;4.00;;;;;;;18.74;83.08;101648.44;5030127;28;20033;-74
2022/08/01 07:05:42;;;;;;;6.18;3.42;;;;;;;18.83;82.60;101642.72;5029214;28;20029;-74
2022/08/01 07:08:08;;;;;;;4.85;3.30;;;;;;;18.95;81.57;101644.81;5029622;28;20376;-74
2022/08/01 07:10:33;;;;;;;5.53;3.78;;;;;;;19.06;80.93;101643.41;5030858;28;20044;-74
2022/08/01 07:12:58;;;;;;;6.63;3.80;;;;;;;19.08;80.61;101649.47;5029207;28;20068;-75
2022/08/01 07:15:26;;;;;;;6.07;3.88;;;;;;;19.04;79.90;101648.78;5025830;28;20119;-74
2022/08/01 07:17:52;;;;;;;5.13;3.83;;;;;;;19.09;79.64;101648.56;5034832;28;20033;-74
2022/08/01 07:20:17;;;;;;;5.72;3.50;;;;;;;19.17;80.55;101646.38;5032920;28;20056;-75
2022/08/01 07:22:42;;;;;;;5.00;3.08;;;;;;;19.20;79.40;101643.59;5027971;28;20044;-74
2022/08/01 07:25:08;;;;;;;4.68;3.33;;;;;;;19.21;79.46;101653.22;5029972;28;20377;-74
2022/08/01 07:27:34;;;;;;;4.30;3.20;;;;;;;19.23;78.87;101655.75;5031058;28;20471;-74
2022/08/01 07:29:59;;;;;;;5.60;3.03;;;;;;;19.28;78.86;101659.03;5033740;28;20079;-74
2022/08/01 07:32:25;;;;;;;4.45;2.95;;;;;;;19.32;78.27;101659.72;5032701;28;20492;-74
2022/08/01 07:34:50;;;;;;;3.33;2.60;;;;;;;19.35;79.02;101651.66;5033584;28;20064;-74
2022/08/01 07:37:15;;;;;;;4.07;2.85;;;;;;;19.40;78.62;101649.66;5030124;28;20025;-75
2022/08/01 07:39:41;;;;;;;5.15;3.13;;;;;;;19.49;79.71;101653.63;5032358;28;20028;-75
2022/08/01 07:42:06;;;;;;;4.32;2.97;;;;;;;19.53;79.02;101653.38;5033104;28;20037;-75
2022/08/01 07:44:31;;;;;;;4.03;3.40;;;;;;;19.58;77.85;101671.63;5032178;28;20029;-75
2022/08/01 07:46:57;;;;;;;4.20;3.00;;;;;;;19.59;78.24;101662.78;5032816;28;20116;-74
2022/08/01 07:49:22;;;;;;;3.80;2.95;;;;;;;19.63;78.37;101663.50;5033040;28;20021;-75
2022/08/01 07:51:47;;;;;;;3.92;3.20;;;;;;;19.70;77.41;101670.16;5033961;28;20028;-74
2022/08/01 07:54:12;;;;;;;6.07;3.08;;;;;;;19.76;79.14;101677.75;5033639;28;20436;-74
2022/08/01 07:56:38;;;;;;;4.82;3.08;;;;;;;19.82;77.52;101672.16;5032183;28;20026;-74
2022/08/01 07:59:03;;;;;;;4.43;3.40;;;;;;;19.91;76.83;101667.38;5032881;28;20049;-74
2022/08/01 08:01:28;;;;;;;5.03;3.42;;;;;;;19.92;76.97;101672.56;5032314;28;20100;-74
2022/08/01 08:03:54;;;;;;;4.38;3.58;;;;;;;19.93;76.90;101671.63;5032245;28;20185;-74
2022/08/01 08:06:19;;;;;;;6.13;3.90;;;;;;;19.98;75.98;101668.78;5032318;28;20017;-74
2022/08/01 08:08:44;;;;;;;5.80;3.90;;;;;;;20.03;76.12;101672.00;5032399;28;20516;-74
2022/08/01 08:11:10;;;;;;;3.85;3.20;;;;;;;20.06;76.96;101669.19;5033267;28;20480;-74
2022/08/01 08:13:35;;;;;;;4.35;3.55;;;;;;;20.07;76.62;101670.91;5032338;28;20085;-74
2022/08/01 08:16:00;;;;;;;5.10;3.50;;;;;;;20.09;75.51;101670.81;5032632;28;20472;-75
2022/08/01 08:18:25;;;;;;;4.03;3.03;;;;;;;20.12;74.86;101671.53;5032837;28;20025;-75
2022/08/01 08:20:51;;;;;;;4.57;3.20;;;;;;;20.12;74.12;101671.53;5032927;28;20465;-74
2022/08/01 08:26:00;;;;;;;4.70;3.85;;;;;;;20.10;74.51;101668.13;5031813;28;20128;-74
2022/08/01 08:28:25;;;;;;;4.47;3.35;;;;;;;20.10;74.20;101673.41;5031222;28;20544;-74
2022/08/01 08:30:50;;;;;;;4.05;2.97;;;;;;;;;;5033556;28;20029;-74
2022/08/01 08:33:17;;;;;;;3.78;2.83;;;;;;;20.19;73.75;101682.63;5032773;28;20056;-74
2022/08/01 08:35:42;;;;;;;5.75;4.25;;;;;;;20.30;75.10;101676.78;5031836;28;20115;-74
2022/08/01 08:38:07;;;;;;;4.47;3.78;;;;;;;20.42;74.41;101665.53;5030927;28;20083;-74
2022/08/01 08:40:35;;;;;;;4.43;3.63;;;;;;;20.46;72.64;101674.13;5032182;28;20033;-74
2022/08/01 08:43:01;;;;;;;5.10;3.90;;;;;;;20.45;73.20;101678.59;5032172;28;20087;-74
2022/08/01 08:45:27;;;;;;;6.18;4.22;;;;;;;20.47;71.74;101673.19;5032404;28;20017;-75
2022/08/01 08:47:54;;;;;;;5.43;4.20;;;;;;;20.54;72.69;101676.34;5032579;28;20396;-74
2022/08/01 08:50:20;;;;;;;5.15;4.40;;;;;;;20.60;73.99;101681.31;5032655;28;20076;-75
2022/08/01 08:52:47;;;;;;;4.55;3.45;;;;;;;20.66;71.95;101680.13;5032186;28;20469;-75
2022/08/01 08:55:16;;;;;;;3.75;3.05;;;;;;;20.73;70.85;101685.00;5031584;28;20095;-75
2022/08/01 08:57:44;;;;;;;4.22;3.72;;;;;;;20.84;71.00;101684.44;5032077;28;20025;-75
2022/08/01 09:00:11;;;;;;;7.20;4.47;;;;;;;20.90;70.75;101677.94;5031387;28;20025;-74
2022/08/01 09:02:41;;;;;;;5.25;4.53;;;;;;;20.92;70.57;101678.72;5032052;28;20492;-75
2022/08/01 09:05:07;;;;;;;5.10;4.35;;;;;;;20.93;70.10;101686.53;5030820;28;20025;-74
2022/08/01 09:07:32;;;;;;;3.95;3.38;;;;;;;20.90;69.88;101693.81;5029040;28;20430;-74
2022/08/01 09:09:57;;;;;;;4.72;3.58;;;;;;;20.89;69.96;101692.09;5031530;28;20063;-74
2022/08/01 09:12:23;;;;;;;3.95;3.28;;;;;;;20.85;70.04;101694.06;5030763;28;20071;-74
2022/08/01 09:14:49;;;;;;;6.10;3.00;;;;;;;20.87;69.66;101694.84;5026119;28;20044;-74
2022/08/01 09:17:16;;;;;;;3.92;3.20;;;;;;;20.92;70.83;101691.94;5029116;28;20362;-74
2022/08/01 09:19:53;;;;;;;4.13;3.00;;;;;;;20.97;71.94;101699.59;5027512;28;20029;-75
2022/08/01 09:22:22;;;;;;;3.75;2.83;;;;;;;20.99;69.21;101701.25;5032072;28;20037;-74
2022/08/01 09:25:03;;;;;;;5.57;3.03;;;;;;;21.02;71.03;101701.03;5031402;28;20033;-74
2022/08/01 09:27:30;;;;;;;6.03;3.20;;;;;;;21.04;71.40;101699.16;5031099;28;20029;-74
2022/08/01 09:30:12;;;;;;;3.83;2.80;;;;;;;21.07;71.07;101706.94;5030579;28;20056;-74
2022/08/01 09:33:01;;;;;;;3.63;3.15;;;;;;;21.11;70.69;101706.78;5030356;28;20181;-74
2022/08/01 09:35:37;;;;;;;3.58;2.70;;;;;;;21.10;69.68;101710.34;5031082;28;20079;-74
2022/08/01 09:38:13;;;;;;;3.38;2.50;;;;;;;21.16;70.84;101704.72;5026827;28;20057;-74
2022/08/01 09:40:50;;;;;;;3.08;2.10;;;;;;;21.20;68.92;101706.22;5025224;28;20036;-74
2022/08/01 09:43:16;;;;;;;3.15;2.20;;;;;;;21.29;67.48;101704.84;5027067;28;20104;-74
2022/08/01 09:45:41;;;;;;;3.20;2.30;;;;;;;21.36;69.05;101701.75;5027852;28;20021;-74
2022/08/01 09:48:08;;;;;;;3.50;1.90;;;;;;;21.45;66.89;101699.53;5027521;28;20032;-74
2022/08/01 09:50:45;;;;;;;3.72;1.85;;;;;;;21.52;67.23;101700.91;5027865;28;20486;-75
2022/08/01 09:53:11;;;;;;;2.55;1.75;;;;;;;21.52;65.02;101703.53;5026559;28;20026;-75
2022/08/01 09:55:38;;;;;;;1.92;1.70;;;;;;;21.56;66.64;101707.69;5028856;28;20036;-74
2022/08/01 09:58:04;;;;;;;1.73;1.42;;;;;;;21.58;65.75;101711.09;5027057;28;20030;-75
2022/08/01 10:00:31;;;;;;;1.73;1.50;;;;;;;21.54;65.14;101709.56;5027829;28;20074;-74
2022/08/01 10:02:58;;;;;;;1.85;1.65;;;;;;;21.48;65.15;101705.50;5025789;28;20185;-74
2022/08/01 10:05:34;;;;;;;2.03;1.70;;;;;;;21.49;66.58;101711.66;5027056;28;20032;-74
2022/08/01 10:08:03;;;;;;;2.40;1.50;;;;;;;21.54;66.49;101709.56;5031056;28;20022;-74
2022/08/01 10:10:29;;;;;;;1.60;1.50;;;;;;;21.62;66.56;101712.66;5030039;28;20030;-74
2022/08/01 10:12:57;;;;;;;3.05;1.55;;;;;;;21.68;65.41;101709.69;5026128;28;20029;-74
2022/08/01 10:15:23;;;;;;;1.60;1.40;;;;;;;21.72;65.07;101706.81;5029901;28;20033;-74
2022/08/01 10:17:54;;;;;;;1.60;1.30;;;;;;;21.73;65.10;101711.16;5029063;28;20032;-74
2022/08/01 10:20:22;;;;;;;1.52;1.13;;;;;;;21.68;62.46;101716.75;5028272;28;20076;-74
2022/08/01 10:22:49;;;;;;;1.50;1.08;;;;;;;21.70;62.72;101716.66;5026148;28;20044;-74
2022/08/01 10:25:17;;;;;;;1.30;1.15;;;;;;;21.78;62.97;101717.91;5022705;28;20030;-74
2022/08/01 10:27:46;;;;;;;2.35;1.20;;;;;;;21.82;64.24;101721.25;5024195;28;20029;-74
2022/08/01 10:30:12;;;;;;;1.23;1.00;;;;;;;21.82;65.23;101718.59;5023866;28;20087;-74
2022/08/01 10:32:39;;;;;;;1.88;1.15;;;;;;;21.79;64.97;101716.13;5026831;28;21413;-74
2022/08/01 10:35:05;;;;;;;1.50;0.95;;;;;;;21.77;65.27;101718.00;5023349;28;20037;-74
2022/08/01 10:37:33;;;;;;;1.23;0.90;;;;;;;21.75;65.64;101726.06;5023606;28;20046;-75
2022/08/01 10:39:59;;;;;;;1.13;0.90;;;;;;;21.78;66.46;101723.19;5023319;28;20030;-74
2022/08/01 10:42:25;;;;;;;2.58;1.00;;;;;;;21.81;65.98;101720.38;5023209;28;20091;-74
2022/08/01 10:44:51;;;;;;;3.35;1.00;;;;;;;21.84;65.09;101714.06;5023611;28;20445;-74
2022/08/01 10:47:40;;;;;;;1.50;1.00;;;;;;;21.87;66.55;101711.19;5024094;28;20041;-74
2022/08/01 10:50:15;;;;;;;1.92;1.00;;;;;;;21.91;66.67;101710.06;5025461;28;20034;-74
2022/08/01 10:52:41;;;;;;;1.10;0.90;;;;;;;21.96;64.85;101710.66;5026848;28;20477;-74
2022/08/01 10:55:10;;;;;;;1.40;1.00;;;;;;;22.03;65.87;101708.50;5028691;28;20036;-74
2022/08/01 10:57:46;;;;;;;1.33;1.10;;;;;;;22.04;65.68;101715.50;5026855;28;20091;-74
2022/08/01 11:00:20;;;;;;;2.58;1.00;;;;;;;22.05;65.58;101718.97;5028956;28;20370;-74
2022/08/01 11:03:00;;;;;;;1.95;1.00;;;;;;;22.05;66.10;101716.34;5030226;28;20033;-75
2022/08/01 11:05:28;;;;;;;1.15;1.00;;;;;;;22.08;64.73;101724.09;5027847;28;20033;-75
2022/08/01 11:07:54;;;;;;;1.77;1.10;;;;;;;22.06;64.26;101731.28;5027616;28;20453;-74
2022/08/01 11:10:33;;;;;;;1.23;1.08;;;;;;;21.98;65.18;101729.97;5026939;28;20067;-74
2022/08/01 11:13:00;;;;;;;1.88;1.15;;;;;;;21.74;64.56;101731.41;5027829;28;20056;-74
2022/08/01 11:15:27;;;;;;;2.25;1.10;;;;;;;21.56;65.07;101741.28;5028458;28;20034;-76
2022/08/01 11:17:53;;;;;;;1.63;0.90;;;;;;;21.38;64.42;101742.22;5027339;28;20040;-74
2022/08/01 11:20:30;;;;;;;1.00;0.70;;;;;;;21.35;64.75;101741.56;5026140;28;20049;-74
2022/08/01 11:22:59;;;;;;;1.25;0.80;;;;;;;21.36;64.79;101737.97;5028256;28;20032;-74
2022/08/01 11:25:47;;;;;;;2.30;0.70;;;;;;;21.47;65.21;101753.25;5026208;28;20029;-74
2022/08/01 11:28:22;;;;;;;0.95;0.70;;;;;;;21.43;63.39;101743.78;5025088;28;20112;-75
2022/08/01 11:30:54;;;;;;;1.00;0.70;;;;;;;21.40;62.45;101760.69;5027312;28;20039;-74
2022/08/01 11:33:39;;;;;;;2.78;0.90;;;;;;;21.36;64.02;101762.63;5026098;28;20029;-75
2022/08/01 11:36:15;;;;;;;0.63;0.60;;;;;;;21.35;63.75;101763.56;5025876;28;20042;-74